Time,TemperatureF,DewpointF,PressureIn,WindDirection,WindDirectionDegrees,WindSpeedMPH,WindSpeedGustMPH,Humidity,HourlyPrecipIn,Conditions,Clouds,dailyrainin,SoftwareType,DateUTC
2013-12-13 00:07:00,16.9,1.9,30.03,WNW,292,0.0,-999.0,51,-99.99,,,0.00,Acu-Link.com,2013-12-13 05:07:00,
2013-12-13 00:22:00,17.4,2.0,30.02,South,180,1.1,-999.0,50,-99.99,,,0.00,Acu-Link.com,2013-12-13 05:22:00,
2013-12-13 00:38:00,17.2,1.4,30.02,SW,225,3.2,-999.0,49,-99.99,,,0.00,Acu-Link.com,2013-12-13 05:38:00,
2013-12-13 00:55:00,18.0,2.1,30.01,West,270,4.7,-999.0,49,-99.99,,,0.00,Acu-Link.com,2013-12-13 05:55:00,
2013-12-13 03:27:00,18.7,2.3,30.01,NE,45,0.0,-999.0,48,-99.99,,,0.00,Acu-Link.com,2013-12-13 08:27:00,
2013-12-13 05:23:00,19.8,5.1,30.00,WNW,292,0.0,-999.0,52,-99.99,,,0.00,Acu-Link.com,2013-12-13 10:23:00,
2013-12-13 07:45:00,19.2,6.5,30.04,WSW,247,1.7,-999.0,57,-99.99,,,0.00,Acu-Link.com,2013-12-13 12:45:00,
2013-12-13 08:00:00,19.8,6.7,30.04,WNW,292,1.1,-999.0,56,-99.99,,,0.00,Acu-Link.com,2013-12-13 13:00:00,
2013-12-13 08:16:00,20.7,7.1,30.04,South,180,3.2,-999.0,55,-99.99,,,0.00,Acu-Link.com,2013-12-13 13:16:00,
2013-12-13 08:31:00,21.9,7.4,30.03,WSW,247,1.7,-999.0,53,-99.99,,,0.00,Acu-Link.com,2013-12-13 13:31:00,
2013-12-13 08:46:00,23.4,8.0,30.04,WNW,292,3.7,-999.0,51,-99.99,,,0.00,Acu-Link.com,2013-12-13 13:46:00,
2013-12-13 09:01:00,23.9,8.0,30.07,West,270,2.7,-999.0,50,-99.99,,,0.00,Acu-Link.com,2013-12-13 14:01:00,
2013-12-13 09:16:00,23.9,8.4,30.07,SW,225,4.7,-999.0,51,-99.99,,,0.00,Acu-Link.com,2013-12-13 14:16:00,
2013-12-13 09:32:00,25.2,8.3,30.08,West,270,1.1,-999.0,48,-99.99,,,0.00,Acu-Link.com,2013-12-13 14:32:00,
2013-12-13 09:47:00,25.7,8.8,30.07,SSW,202,4.2,-999.0,48,-99.99,,,0.00,Acu-Link.com,2013-12-13 14:47:00,
2013-12-13 10:02:00,27.0,9.0,30.07,WSW,247,3.2,-999.0,46,-99.99,,,0.00,Acu-Link.com,2013-12-13 15:02:00,
2013-12-13 10:17:00,27.7,10.1,30.07,West,270,2.7,-999.0,47,-99.99,,,0.00,Acu-Link.com,2013-12-13 15:17:00,
2013-12-13 10:32:00,27.5,9.5,30.08,SW,225,4.7,-999.0,46,-99.99,,,0.00,Acu-Link.com,2013-12-13 15:32:00,
2013-12-13 10:48:00,27.9,10.3,30.08,West,270,4.7,-999.0,47,-99.99,,,0.00,Acu-Link.com,2013-12-13 15:48:00,
2013-12-13 11:03:00,27.0,10.9,30.07,SW,225,1.7,-999.0,50,-99.99,,,0.00,Acu-Link.com,2013-12-13 16:03:00,
2013-12-13 11:18:00,28.6,11.0,30.06,West,270,3.2,-999.0,47,-99.99,,,0.00,Acu-Link.com,2013-12-13 16:18:00,
2013-12-13 11:33:00,28.8,11.1,30.06,SSW,202,2.2,-999.0,47,-99.99,,,0.00,Acu-Link.com,2013-12-13 16:33:00,
2013-12-13 11:48:00,28.9,12.2,30.05,West,270,2.7,-999.0,49,-99.99,,,0.00,Acu-Link.com,2013-12-13 16:48:00,
2013-12-13 12:04:00,28.0,11.3,30.05,West,270,6.3,-999.0,49,-99.99,,,0.00,Acu-Link.com,2013-12-13 17:04:00,
2013-12-13 12:19:00,28.6,12.3,30.06,WSW,247,2.2,-999.0,50,-99.99,,,0.00,Acu-Link.com,2013-12-13 17:19:00,
2013-12-13 12:35:00,28.4,12.2,30.05,West,270,7.3,-999.0,50,-99.99,,,0.00,Acu-Link.com,2013-12-13 17:35:00,
2013-12-13 12:50:00,29.5,12.7,30.05,SSW,202,2.7,-999.0,49,-99.99,,,0.00,Acu-Link.com,2013-12-13 17:50:00,
2013-12-13 13:05:00,30.2,12.9,30.05,West,270,4.2,-999.0,48,-99.99,,,0.00,Acu-Link.com,2013-12-13 18:05:00,
2013-12-13 13:21:00,30.4,13.1,30.05,WSW,247,4.2,-999.0,48,-99.99,,,0.00,Acu-Link.com,2013-12-13 18:21:00,
2013-12-13 13:37:00,30.6,13.3,30.05,SSE,157,1.7,-999.0,48,-99.99,,,0.00,Acu-Link.com,2013-12-13 18:37:00,
2013-12-13 13:53:00,31.5,14.1,30.04,West,270,5.3,-999.0,48,-99.99,,,0.00,Acu-Link.com,2013-12-13 18:53:00,
2013-12-13 14:08:00,31.5,13.6,30.04,West,270,3.2,-999.0,47,-99.99,,,0.00,Acu-Link.com,2013-12-13 19:08:00,
2013-12-13 14:23:00,31.8,13.4,30.04,West,270,4.7,-999.0,46,-99.99,,,0.00,Acu-Link.com,2013-12-13 19:23:00,
2013-12-13 14:39:00,32.0,13.6,30.04,SW,225,2.7,-999.0,46,-99.99,,,0.00,Acu-Link.com,2013-12-13 19:39:00,
2013-12-13 14:54:00,31.8,13.4,30.05,West,270,3.2,-999.0,46,-99.99,,,0.00,Acu-Link.com,2013-12-13 19:54:00,
2013-12-13 15:09:00,31.8,13.4,30.04,WSW,247,6.8,-999.0,46,-99.99,,,0.00,Acu-Link.com,2013-12-13 20:09:00,
2013-12-13 15:24:00,31.6,13.2,30.05,WSW,247,3.7,-999.0,46,-99.99,,,0.00,Acu-Link.com,2013-12-13 20:24:00,
2013-12-13 15:40:00,31.3,13.4,30.06,WSW,247,2.2,-999.0,47,-99.99,,,0.00,Acu-Link.com,2013-12-13 20:40:00,
2013-12-13 15:55:00,31.1,12.8,30.07,SW,225,3.7,-999.0,46,-99.99,,,0.00,Acu-Link.com,2013-12-13 20:55:00,
2013-12-13 16:11:00,30.9,13.1,30.07,WSW,247,3.2,-999.0,47,-99.99,,,0.00,Acu-Link.com,2013-12-13 21:11:00,
2013-12-13 16:26:00,30.6,13.7,30.07,WSW,247,2.2,-999.0,49,-99.99,,,0.00,Acu-Link.com,2013-12-13 21:26:00,
2013-12-13 16:41:00,30.4,13.1,30.07,SSE,157,2.2,-999.0,48,-99.99,,,0.00,Acu-Link.com,2013-12-13 21:41:00,
2013-12-13 16:56:00,30.0,12.7,30.08,SSW,202,0.0,-999.0,48,-99.99,,,0.00,Acu-Link.com,2013-12-13 21:56:00,
2013-12-13 17:12:00,30.0,12.7,30.08,West,270,0.0,-999.0,48,-99.99,,,0.00,Acu-Link.com,2013-12-13 22:12:00,
2013-12-13 17:27:00,29.8,12.5,30.09,NW,315,2.7,-999.0,48,-99.99,,,0.00,Acu-Link.com,2013-12-13 22:27:00,
2013-12-13 17:44:00,29.8,12.1,30.10,WSW,247,2.2,-999.0,47,-99.99,,,0.00,Acu-Link.com,2013-12-13 22:44:00,
2013-12-13 17:59:00,29.8,12.5,30.11,WSW,247,0.0,-999.0,48,-99.99,,,0.00,Acu-Link.com,2013-12-13 22:59:00,
2013-12-13 18:14:00,29.8,12.5,30.12,West,270,0.0,-999.0,48,-99.99,,,0.00,Acu-Link.com,2013-12-13 23:14:00,
2013-12-13 18:30:00,29.8,12.5,30.12,SW,225,1.1,-999.0,48,-99.99,,,0.00,Acu-Link.com,2013-12-13 23:30:00,
2013-12-13 18:45:00,29.8,13.5,30.13,South,180,0.0,-999.0,50,-99.99,,,0.00,Acu-Link.com,2013-12-13 23:45:00,
2013-12-13 19:00:00,29.8,13.0,30.13,West,270,0.0,-999.0,49,-99.99,,,0.00,Acu-Link.com,2013-12-14 00:00:00,
2013-12-13 19:15:00,29.7,12.9,30.14,North,0,1.7,-999.0,49,-99.99,,,0.00,Acu-Link.com,2013-12-14 00:15:00,
2013-12-13 19:31:00,29.7,13.4,30.14,WSW,247,1.1,-999.0,50,-99.99,,,0.00,Acu-Link.com,2013-12-14 00:31:00,
2013-12-13 19:46:00,29.5,13.2,30.14,West,270,0.0,-999.0,50,-99.99,,,0.00,Acu-Link.com,2013-12-14 00:46:00,
2013-12-13 20:01:00,29.1,14.1,30.14,NW,315,0.0,-999.0,53,-99.99,,,0.00,Acu-Link.com,2013-12-14 01:01:00,
2013-12-13 20:16:00,28.2,14.1,30.14,NW,315,0.0,-999.0,55,-99.99,,,0.00,Acu-Link.com,2013-12-14 01:16:00,
2013-12-13 20:31:00,27.1,14.7,30.14,NW,315,0.0,-999.0,59,-99.99,,,0.00,Acu-Link.com,2013-12-14 01:31:00,
2013-12-13 20:47:00,26.4,14.8,30.14,NNW,337,0.0,-999.0,61,-99.99,,,0.00,Acu-Link.com,2013-12-14 01:47:00,
2013-12-13 21:02:00,25.9,15.1,30.15,NNW,337,0.0,-999.0,63,-99.99,,,0.00,Acu-Link.com,2013-12-14 02:02:00,
2013-12-13 21:17:00,25.7,15.2,30.16,NNW,337,0.0,-999.0,64,-99.99,,,0.00,Acu-Link.com,2013-12-14 02:17:00,
2013-12-13 21:32:00,25.7,14.5,30.15,WNW,292,0.0,-999.0,62,-99.99,,,0.00,Acu-Link.com,2013-12-14 02:32:00,
2013-12-13 21:47:00,25.7,13.8,30.16,WNW,292,0.0,-999.0,60,-99.99,,,0.00,Acu-Link.com,2013-12-14 02:47:00,
2013-12-13 22:03:00,26.1,16.3,30.17,West,270,0.0,-999.0,66,-99.99,,,0.00,Acu-Link.com,2013-12-14 03:03:00,
2013-12-13 22:18:00,26.1,16.0,30.17,West,270,0.0,-999.0,65,-99.99,,,0.00,Acu-Link.com,2013-12-14 03:18:00,
2013-12-13 22:33:00,26.2,16.1,30.18,SW,225,0.0,-999.0,65,-99.99,,,0.00,Acu-Link.com,2013-12-14 03:33:00,
2013-12-13 22:48:00,26.2,15.3,30.18,NW,315,0.0,-999.0,63,-99.99,,,0.00,Acu-Link.com,2013-12-14 03:48:00,
2013-12-13 23:03:00,25.9,15.4,30.18,West,270,0.0,-999.0,64,-99.99,,,0.00,Acu-Link.com,2013-12-14 04:03:00,
2013-12-13 23:19:00,25.9,15.4,30.20,SSE,157,0.0,-999.0,64,-99.99,,,0.00,Acu-Link.com,2013-12-14 04:19:00,
2013-12-13 23:34:00,25.7,15.6,30.19,WNW,292,0.0,-999.0,65,-99.99,,,0.00,Acu-Link.com,2013-12-14 04:34:00,
2013-12-13 23:49:00,25.7,16.3,30.20,West,270,0.0,-999.0,67,-99.99,,,0.00,Acu-Link.com,2013-12-14 04:49:00,